Time;durP1;ratioP1;P1;durP2;ratioP2;P2;SDS_P1;SDS_P2;PMS_P1;PMS_P2;Temp;Humidity;BMP_temperature;BMP_pressure;BME280_temperature;BME280_humidity;BME280_pressure;Samples;Min_cycle;Max_cycle;Signal;HPM_P1;HPM_P2
2023/10/23 00:00:25;;;;;;;24.73;20.02;;;;;;;-148.88;100.00;-17125.47;5011111;28;20037;-72
2023/10/23 00:02:50;;;;;;;23.85;18.63;;;;;;;-148.88;100.00;-17125.47;5011019;28;20034;-72
2023/10/23 00:05:16;;;;;;;20.88;18.38;;;;;;;-148.88;100.00;-17125.47;5012461;28;20025;-72
2023/10/23 00:07:41;;;;;;;23.95;17.13;;;;;;;-148.88;100.00;-17125.47;5012536;28;20033;-72
2023/10/23 00:10:07;;;;;;;20.48;16.90;;;;;;;-148.88;100.00;-17125.47;5012400;28;20100;-72
2023/10/23 00:12:33;;;;;;;20.95;17.08;;;;;;;-148.88;100.00;-17125.47;5015569;28;20425;-72
2023/10/23 00:14:58;;;;;;;20.35;15.57;;;;;;;-148.88;100.00;-17125.47;5015024;28;20485;-72
2023/10/23 00:17:23;;;;;;;18.42;15.45;;;;;;;-148.88;100.00;-17125.47;5014936;28;20026;-72
2023/10/23 00:19:49;;;;;;;18.08;14.82;;;;;;;-148.88;100.00;-17125.47;5016135;28;20018;-72
2023/10/23 00:22:14;;;;;;;15.57;13.55;;;;;;;-148.88;100.00;-17125.47;5016223;28;20152;-72
2023/10/23 00:24:40;;;;;;;14.85;12.98;;;;;;;-148.88;100.00;-17125.47;5016343;28;20046;-72
2023/10/23 00:27:05;;;;;;;19.45;14.90;;;;;;;-148.88;100.00;-17125.47;5016376;28;20053;-72
2023/10/23 00:29:30;;;;;;;19.05;13.90;;;;;;;-148.88;100.00;-17125.47;5016276;28;20064;-72
2023/10/23 00:31:56;;;;;;;18.13;14.48;;;;;;;-148.88;100.00;-17125.47;5016056;28;20065;-72
2023/10/23 00:34:21;;;;;;;18.00;14.30;;;;;;;-148.88;100.00;-17125.47;5016050;28;20033;-72
2023/10/23 00:36:47;;;;;;;19.58;15.52;;;;;;;-148.88;100.00;-17125.47;5014576;28;20021;-73
2023/10/23 00:39:12;;;;;;;20.75;16.58;;;;;;;-148.88;100.00;-17125.47;5015712;28;20025;-73
2023/10/23 00:41:38;;;;;;;21.58;16.38;;;;;;;-148.88;100.00;-17125.47;5015782;28;20062;-72
2023/10/23 00:44:04;;;;;;;19.25;16.10;;;;;;;-148.88;100.00;-17125.47;5015784;28;20053;-73
2023/10/23 00:46:32;;;;;;;19.77;16.77;;;;;;;-148.88;100.00;-17125.47;5014501;28;20025;-72
2023/10/23 00:48:58;;;;;;;19.35;16.98;;;;;;;-148.88;100.00;-17125.47;5015586;28;20428;-72
2023/10/23 00:51:24;;;;;;;22.52;17.67;;;;;;;-148.88;100.00;-17125.47;5016029;28;20067;-72
2023/10/23 00:53:50;;;;;;;20.60;17.67;;;;;;;-148.88;100.00;-17125.47;5015825;28;20025;-72
2023/10/23 00:56:17;;;;;;;20.63;17.33;;;;;;;-148.88;100.00;-17125.47;5015811;28;20476;-72
2023/10/23 00:58:43;;;;;;;20.10;16.60;;;;;;;-148.88;100.00;-17125.47;5015373;28;20018;-72
2023/10/23 01:01:12;;;;;;;23.70;18.45;;;;;;;-148.88;100.00;-17125.47;5015397;28;20029;-72
2023/10/23 01:03:42;;;;;;;21.90;18.70;;;;;;;-148.88;100.00;-17125.47;5013937;28;20037;-72
2023/10/23 01:06:09;;;;;;;22.27;18.75;;;;;;;-148.88;100.00;-17125.47;5015479;28;20022;-72
2023/10/23 01:08:34;;;;;;;23.95;18.35;;;;;;;-148.88;100.00;-17125.47;5015311;28;20397;-72
2023/10/23 01:11:00;;;;;;;20.42;17.13;;;;;;;-148.88;100.00;-17125.47;5013864;28;20477;-72
2023/10/23 01:13:26;;;;;;;22.65;17.48;;;;;;;-148.88;100.00;-17125.47;5013937;28;20033;-72
2023/10/23 01:15:52;;;;;;;21.23;17.08;;;;;;;-148.88;100.00;-17125.47;5013751;28;20025;-72
2023/10/23 01:18:18;;;;;;;21.42;17.92;;;;;;;-148.88;100.00;-17125.47;5015410;28;20029;-73
2023/10/23 01:20:47;;;;;;;23.73;18.48;;;;;;;-148.88;100.00;-17125.47;5014988;28;20033;-72
2023/10/23 01:23:12;;;;;;;24.40;19.83;;;;;;;-148.88;100.00;-17125.47;5014339;28;20030;-72
2023/10/23 01:25:38;;;;;;;23.13;19.08;;;;;;;-148.88;100.00;-17125.47;5013688;28;20033;-72
2023/10/23 01:28:04;;;;;;;27.40;21.63;;;;;;;-148.88;100.00;-17125.47;5013561;28;20113;-72
2023/10/23 01:30:30;;;;;;;27.80;22.05;;;;;;;-148.88;100.00;-17125.47;5014772;28;20022;-72
2023/10/23 01:32:55;;;;;;;28.30;22.45;;;;;;;-148.88;100.00;-17125.47;5014775;28;20036;-72
2023/10/23 01:35:20;;;;;;;29.60;22.80;;;;;;;-148.88;100.00;-17125.47;5014801;28;20496;-72
2023/10/23 01:37:47;;;;;;;30.88;23.45;;;;;;;-148.88;100.00;-17125.47;5014767;28;20528;-72
2023/10/23 01:40:13;;;;;;;31.92;23.10;;;;;;;-148.88;100.00;-17125.47;5014720;28;20021;-72
2023/10/23 01:42:39;;;;;;;32.67;25.00;;;;;;;-148.88;100.00;-17125.47;5014542;28;20377;-73
2023/10/23 01:45:04;;;;;;;30.95;24.13;;;;;;;-148.88;100.00;-17125.47;5014546;28;20394;-73
2023/10/23 01:47:30;;;;;;;36.50;25.60;;;;;;;-148.88;100.00;-17125.47;5014992;28;20420;-73
2023/10/23 01:49:56;;;;;;;35.25;25.38;;;;;;;-148.88;100.00;-17125.47;5014635;28;20029;-72
2023/10/23 01:52:21;;;;;;;34.83;25.23;;;;;;;-148.88;100.00;-17125.47;5014543;28;20052;-72
2023/10/23 01:54:50;;;;;;;34.17;25.55;;;;;;;-148.88;100.00;-17125.47;5014605;28;20542;-72
2023/10/23 01:57:15;;;;;;;36.75;26.48;;;;;;;-148.88;100.00;-17125.47;5012894;28;20476;-73
2023/10/23 01:59:41;;;;;;;33.90;25.60;;;;;;;-148.88;100.00;-17125.47;5014293;28;20025;-72
2023/10/23 02:02:06;;;;;;;33.47;26.10;;;;;;;-148.88;100.00;-17125.47;5014009;28;20045;-73
2023/10/23 02:04:33;;;;;;;32.40;25.58;;;;;;;-148.88;100.00;-17125.47;5014354;28;20029;-72
2023/10/23 02:06:59;;;;;;;35.42;25.92;;;;;;;-148.88;100.00;-17125.47;5014165;28;20384;-72
2023/10/23 02:09:24;;;;;;;35.67;27.45;;;;;;;-148.88;100.00;-17125.47;5014041;28;20033;-72
2023/10/23 02:11:50;;;;;;;31.35;25.13;;;;;;;-148.88;100.00;-17125.47;5014146;28;20037;-72
2023/10/23 02:14:15;;;;;;;36.70;26.75;;;;;;;-148.88;100.00;-17125.47;5014031;28;20094;-73
2023/10/23 02:16:41;;;;;;;35.83;26.52;;;;;;;-148.88;100.00;-17125.47;5012711;28;20457;-72
2023/10/23 02:19:06;;;;;;;34.58;26.75;;;;;;;-148.88;100.00;-17125.47;5013743;28;20037;-72
2023/10/23 02:21:32;;;;;;;37.85;27.85;;;;;;;-148.88;100.00;-17125.47;5012507;28;20052;-72
2023/10/23 02:23:58;;;;;;;39.17;28.25;;;;;;;-148.88;100.00;-17125.47;5013903;28;20017;-73
2023/10/23 02:26:24;;;;;;;36.45;27.08;;;;;;;-148.88;100.00;-17125.47;5013807;28;20033;-72
2023/10/23 02:28:50;;;;;;;35.97;26.85;;;;;;;-148.88;100.00;-17125.47;5013670;28;20021;-73
2023/10/23 02:31:16;;;;;;;39.42;28.42;;;;;;;-148.88;100.00;-17125.47;5013792;28;20037;-72
2023/10/23 02:33:41;;;;;;;37.20;26.80;;;;;;;-148.88;100.00;-17125.47;5013672;28;20076;-72
2023/10/23 02:36:07;;;;;;;39.10;27.88;;;;;;;-148.88;100.00;-17125.47;5011247;28;20101;-73
2023/10/23 02:38:32;;;;;;;40.55;27.65;;;;;;;-148.88;100.00;-17125.47;5013702;28;20026;-73
2023/10/23 02:40:58;;;;;;;35.35;26.75;;;;;;;-148.88;100.00;-17125.47;5013511;28;20108;-72
2023/10/23 02:43:24;;;;;;;38.25;27.17;;;;;;;-148.88;100.00;-17125.47;5012127;28;20511;-73
2023/10/23 02:45:49;;;;;;;43.45;28.45;;;;;;;-148.88;100.00;-17125.47;5013508;28;20033;-72
2023/10/23 02:48:17;;;;;;;39.60;28.08;;;;;;;-148.88;100.00;-17125.47;5013402;28;20018;-72
2023/10/23 02:50:55;;;;;;;37.85;27.60;;;;;;;-148.88;100.00;-17125.47;5013495;28;20053;-72
2023/10/23 02:53:21;;;;;;;39.28;27.27;;;;;;;-148.88;100.00;-17125.47;5013345;28;20026;-73
2023/10/23 02:55:47;;;;;;;42.72;29.00;;;;;;;-148.88;100.00;-17125.47;5013516;28;20076;-73
2023/10/23 02:58:13;;;;;;;42.60;29.10;;;;;;;-148.88;100.00;-17125.47;5013111;28;20104;-72
2023/10/23 03:00:39;;;;;;;42.70;28.80;;;;;;;-148.88;100.00;-17125.47;5011765;28;20116;-72
2023/10/23 03:03:04;;;;;;;41.33;27.63;;;;;;;-148.88;100.00;-17125.47;5011818;28;20057;-73
2023/10/23 03:05:30;;;;;;;42.25;27.40;;;;;;;-148.88;100.00;-17125.47;5013157;28;20053;-73
2023/10/23 03:07:55;;;;;;;40.30;26.77;;;;;;;-148.88;100.00;-17125.47;5013021;28;20504;-72
2023/10/23 03:10:21;;;;;;;34.95;25.73;;;;;;;-148.88;100.00;-17125.47;5013041;28;20113;-72
2023/10/23 03:12:46;;;;;;;38.15;26.38;;;;;;;-148.88;100.00;-17125.47;5012903;28;20062;-72
2023/10/23 03:15:11;;;;;;;40.83;26.52;;;;;;;-148.88;100.00;-17125.47;5012998;28;20053;-72
2023/10/23 03:17:37;;;;;;;37.70;27.10;;;;;;;-148.88;100.00;-17125.47;5012897;28;20026;-72
2023/10/23 03:20:03;;;;;;;41.45;27.92;;;;;;;-148.88;100.00;-17125.47;5011392;28;20026;-73
2023/10/23 03:22:29;;;;;;;36.95;27.30;;;;;;;-148.88;100.00;-17125.47;5012882;28;20026;-73
2023/10/23 03:24:54;;;;;;;40.22;27.15;;;;;;;-148.88;100.00;-17125.47;5011568;28;20550;-72
2023/10/23 03:27:20;;;;;;;40.03;26.70;;;;;;;-148.88;100.00;-17125.47;5012796;28;20033;-72
2023/10/23 03:29:45;;;;;;;38.25;25.73;;;;;;;-148.88;100.00;-17125.47;5011383;28;20028;-73
2023/10/23 03:32:11;;;;;;;35.58;24.98;;;;;;;-148.88;100.00;-17125.47;5012648;28;20022;-73
2023/10/23 03:34:36;;;;;;;37.00;26.55;;;;;;;-148.88;100.00;-17125.47;5012695;28;20037;-73
2023/10/23 03:37:01;;;;;;;39.00;27.30;;;;;;;-148.88;100.00;-17125.47;5012818;28;20025;-73
2023/10/23 03:39:27;;;;;;;36.60;26.90;;;;;;;-148.88;100.00;-17125.47;5012422;28;20358;-72
2023/10/23 03:41:52;;;;;;;42.20;27.40;;;;;;;-148.88;100.00;-17125.47;5012607;28;20026;-72
2023/10/23 03:44:17;;;;;;;36.97;25.77;;;;;;;-148.88;100.00;-17125.47;5011215;28;20032;-72
2023/10/23 03:46:43;;;;;;;37.20;26.85;;;;;;;-148.88;100.00;-17125.47;5010885;28;20051;-72
2023/10/23 03:49:09;;;;;;;37.25;25.77;;;;;;;-148.88;100.00;-17125.47;5012593;28;20073;-72
2023/10/23 03:51:34;;;;;;;39.55;26.30;;;;;;;-148.88;100.00;-17125.47;5012483;28;20473;-73
2023/10/23 03:54:00;;;;;;;36.30;25.33;;;;;;;-148.88;100.00;-17125.47;5012418;28;20030;-73
2023/10/23 03:56:25;;;;;;;34.90;25.05;;;;;;;-148.88;100.00;-17125.47;5012420;28;20029;-72
2023/10/23 03:58:50;;;;;;;33.35;24.02;;;;;;;-148.88;100.00;-17125.47;5012332;28;20077;-73
2023/10/23 04:01:16;;;;;;;33.17;24.20;;;;;;;-148.88;100.00;-17125.47;5011065;28;20037;-73
2023/10/23 04:03:41;;;;;;;33.83;23.92;;;;;;;-148.88;100.00;-17125.47;5012489;28;20485;-72
2023/10/23 04:06:07;;;;;;;33.65;23.58;;;;;;;-148.88;100.00;-17125.47;5012341;28;20022;-72
2023/10/23 04:08:32;;;;;;;33.60;23.67;;;;;;;-148.88;100.00;-17125.47;5011087;28;20018;-72
2023/10/23 04:10:58;;;;;;;31.58;23.67;;;;;;;-148.88;100.00;-17125.47;5012165;28;20045;-75
2023/10/23 04:13:24;;;;;;;34.33;25.45;;;;;;;-148.88;100.00;-17125.47;5011442;28;20026;-74
2023/10/23 04:15:57;;;;;;;33.08;23.80;;;;;;;-148.88;100.00;-17125.47;5012719;28;20026;-72
2023/10/23 04:18:26;;;;;;;31.92;23.88;;;;;;;-148.88;100.00;-17125.47;5013069;28;20389;-78
2023/10/23 04:21:20;;;;;;;34.63;24.05;;;;;;;-148.88;100.00;-17125.47;5013176;28;20396;-73
2023/10/23 04:23:46;;;;;;;32.20;24.73;;;;;;;-148.88;100.00;-17125.47;4999595;28;20037;-73
2023/10/23 04:26:11;;;;;;;32.28;24.42;;;;;;;-148.88;100.00;-17125.47;5012381;28;20026;-73
2023/10/23 04:28:37;;;;;;;33.55;24.75;;;;;;;-148.88;100.00;-17125.47;5012415;28;20049;-73
2023/10/23 04:31:05;;;;;;;34.47;24.15;;;;;;;-148.88;100.00;-17125.47;5012041;28;20044;-73
2023/10/23 04:33:31;;;;;;;38.00;25.33;;;;;;;-148.88;100.00;-17125.47;5012022;28;20045;-73
2023/10/23 04:35:58;;;;;;;34.35;25.17;;;;;;;-148.88;100.00;-17125.47;5012077;28;20493;-73
2023/10/23 04:38:24;;;;;;;32.85;24.25;;;;;;;-148.88;100.00;-17125.47;5012034;28;20507;-72
2023/10/23 04:40:50;;;;;;;33.15;23.08;;;;;;;-148.88;100.00;-17125.47;5011859;28;20026;-73
2023/10/23 04:43:16;;;;;;;31.33;23.95;;;;;;;-148.88;100.00;-17125.47;5010836;28;20022;-73
2023/10/23 04:45:44;;;;;;;31.80;23.70;;;;;;;-148.88;100.00;-17125.47;5012024;28;20029;-72
2023/10/23 04:48:10;;;;;;;34.22;24.50;;;;;;;-148.88;100.00;-17125.47;5011893;28;20030;-73
2023/10/23 04:50:37;;;;;;;30.85;22.23;;;;;;;-148.88;100.00;-17125.47;5011893;28;20018;-72
2023/10/23 04:53:03;;;;;;;30.85;23.38;;;;;;;-148.88;100.00;-17125.47;5012046;28;20481;-72
2023/10/23 04:55:33;;;;;;;31.52;23.60;;;;;;;-148.88;100.00;-17125.47;5011839;28;20026;-72
2023/10/23 04:57:58;;;;;;;29.98;22.58;;;;;;;-148.88;100.00;-17125.47;5012333;28;20485;-73
2023/10/23 05:00:24;;;;;;;32.58;23.70;;;;;;;-148.88;100.00;-17125.47;5015243;28;20026;-73
2023/10/23 05:02:49;;;;;;;31.83;23.85;;;;;;;-148.88;100.00;-17125.47;5015453;28;20037;-72
2023/10/23 05:05:15;;;;;;;32.10;24.13;;;;;;;-148.88;100.00;-17125.47;5015365;28;20033;-72
2023/10/23 05:07:40;;;;;;;35.95;25.02;;;;;;;-148.88;100.00;-17125.47;5015588;28;20038;-72
2023/10/23 05:10:07;;;;;;;36.42;24.85;;;;;;;-148.88;100.00;-17125.47;5015248;28;20389;-72
2023/10/23 05:12:32;;;;;;;39.40;25.83;;;;;;;-148.88;100.00;-17125.47;5015248;28;20109;-72
2023/10/23 05:14:58;;;;;;;39.42;26.08;;;;;;;-148.88;100.00;-17125.47;5015173;28;20457;-72
2023/10/23 05:17:24;;;;;;;40.10;27.23;;;;;;;-148.88;100.00;-17125.47;5015584;28;20030;-73
2023/10/23 05:19:49;;;;;;;39.47;26.23;;;;;;;-148.88;100.00;-17125.47;5015474;28;20515;-73
2023/10/23 05:22:15;;;;;;;40.00;27.08;;;;;;;-148.88;100.00;-17125.47;5015096;28;20093;-72
2023/10/23 05:24:44;;;;;;;41.40;27.42;;;;;;;-148.88;100.00;-17125.47;5014981;28;20029;-72
2023/10/23 05:27:10;;;;;;;48.42;30.23;;;;;;;-148.88;100.00;-17125.47;5015047;28;20148;-72
2023/10/23 05:29:35;;;;;;;40.60;27.08;;;;;;;-148.88;100.00;-17125.47;5014810;28;20040;-72
2023/10/23 05:32:03;;;;;;;40.72;27.20;;;;;;;-148.88;100.00;-17125.47;5013554;28;20401;-73
2023/10/23 05:34:28;;;;;;;38.50;27.23;;;;;;;-148.88;100.00;-17125.47;5014888;28;20022;-73
2023/10/23 05:36:53;;;;;;;41.17;27.17;;;;;;;-148.88;100.00;-17125.47;5014812;28;20022;-73
2023/10/23 05:39:19;;;;;;;36.70;25.42;;;;;;;-148.88;100.00;-17125.47;5014733;28;20029;-74
2023/10/23 05:41:44;;;;;;;36.95;24.75;;;;;;;-148.88;100.00;-17125.47;5014646;28;20049;-72
2023/10/23 05:44:09;;;;;;;36.55;25.30;;;;;;;-148.88;100.00;-17125.47;5013502;28;20028;-72
2023/10/23 05:46:35;;;;;;;39.78;26.77;;;;;;;-148.88;100.00;-17125.47;5014501;28;20030;-72
2023/10/23 05:49:00;;;;;;;43.80;29.23;;;;;;;-148.88;100.00;-17125.47;5014147;28;20018;-72
2023/10/23 05:51:25;;;;;;;39.70;26.15;;;;;;;-148.88;100.00;-17125.47;5012913;28;20079;-73
2023/10/23 05:53:51;;;;;;;46.83;27.85;;;;;;;-148.88;100.00;-17125.47;5012134;28;20026;-72
2023/10/23 05:56:16;;;;;;;27.00;12.20;;;;;;;-148.88;100.00;-17125.47;4995475;28;20065;-72
2023/10/23 05:58:41;;;;;;;47.70;30.20;;;;;;;-148.88;100.00;-17125.47;5013834;28;20029;-72
2023/10/23 06:01:08;;;;;;;44.97;28.73;;;;;;;-148.88;100.00;-17125.47;5011367;28;20512;-72
2023/10/23 06:03:34;;;;;;;41.92;26.45;;;;;;;-148.88;100.00;-17125.47;4992942;28;20031;-73
2023/10/23 06:06:00;;;;;;;38.63;25.35;;;;;;;-148.88;100.00;-17125.47;4994473;28;20022;-73
2023/10/23 06:08:25;;;;;;;36.88;24.73;;;;;;;-148.88;100.00;-17125.47;4994239;28;20023;-73
2023/10/23 06:10:51;;;;;;;35.78;24.50;;;;;;;-148.88;100.00;-17125.47;4992796;28;20512;-73
2023/10/23 06:13:16;;;;;;;35.67;23.70;;;;;;;-148.88;100.00;-17125.47;4994330;28;20065;-73
2023/10/23 06:15:42;;;;;;;30.67;22.27;;;;;;;-148.88;100.00;-17125.47;4992959;28;20366;-73
2023/10/23 06:18:07;;;;;;;32.67;22.27;;;;;;;-148.88;100.00;-17125.47;4994238;28;20018;-73
2023/10/23 06:20:33;;;;;;;34.38;22.98;;;;;;;-148.88;100.00;-17125.47;4992729;28;20113;-73
2023/10/23 06:22:59;;;;;;;40.10;25.00;;;;;;;-148.88;100.00;-17125.47;4992825;28;20061;-73
2023/10/23 06:25:26;;;;;;;47.72;27.58;;;;;;;-148.88;100.00;-17125.47;4994206;28;20065;-73
2023/10/23 06:27:51;;;;;;;27.25;12.32;;;;;;;-148.88;100.00;-17125.47;4992915;28;20030;-73
2023/10/23 06:30:17;;;;;;;26.92;12.25;;;;;;;-148.88;100.00;-17125.47;4994188;28;20073;-72
2023/10/23 06:32:42;;;;;;;107.95;23.92;;;;;;;-148.88;100.00;-17125.47;4994331;28;20504;-72
2023/10/23 06:35:07;;;;;;;94.65;25.33;;;;;;;-148.88;100.00;-17125.47;4994503;28;20041;-73
2023/10/23 06:37:33;;;;;;;33.78;21.02;;;;;;;-148.88;100.00;-17125.47;4994426;28;20022;-72
2023/10/23 06:39:58;;;;;;;194.48;31.90;;;;;;;-148.88;100.00;-17125.47;4992836;28;20054;-73
2023/10/23 06:42:27;;;;;;;41.55;12.70;;;;;;;-148.88;100.00;-17125.47;4994046;28;20045;-73
2023/10/23 06:44:53;;;;;;;44.05;24.00;;;;;;;-148.88;100.00;-17125.47;4993916;28;20143;-73
2023/10/23 06:47:18;;;;;;;38.13;24.70;;;;;;;-148.88;100.00;-17125.47;4993976;28;20101;-72
2023/10/23 06:49:44;;;;;;;39.10;23.95;;;;;;;-148.88;100.00;-17125.47;4993984;28;20018;-73
2023/10/23 06:52:10;;;;;;;51.17;29.15;;;;;;;-148.88;100.00;-17125.47;4993796;28;20030;-73
2023/10/23 06:54:35;;;;;;;46.95;29.92;;;;;;;-148.88;100.00;-17125.47;4993766;28;20461;-73
2023/10/23 06:57:00;;;;;;;52.45;30.15;;;;;;;-148.88;100.00;-17125.47;4993759;28;20022;-72
2023/10/23 06:59:27;;;;;;;45.70;28.25;;;;;;;-148.88;100.00;-17125.47;4993667;28;20457;-72
2023/10/23 07:01:52;;;;;;;48.33;28.65;;;;;;;-148.88;100.00;-17125.47;4993606;28;20030;-72
2023/10/23 07:04:18;;;;;;;49.45;29.48;;;;;;;-148.88;100.00;-17125.47;4993661;28;20033;-72
2023/10/23 07:06:43;;;;;;;54.10;31.20;;;;;;;-148.88;100.00;-17125.47;4993584;28;20022;-72
2023/10/23 07:09:09;;;;;;;57.05;32.22;;;;;;;-148.88;100.00;-17125.47;4993912;28;20018;-72
2023/10/23 07:11:34;;;;;;;62.72;34.75;;;;;;;-148.88;100.00;-17125.47;4993496;28;20101;-72
2023/10/23 07:13:59;;;;;;;54.42;31.60;;;;;;;-148.88;100.00;-17125.47;4993421;28;20176;-72
2023/10/23 07:16:25;;;;;;;65.13;32.20;;;;;;;-148.88;100.00;-17125.47;4993381;28;20022;-72
2023/10/23 07:18:50;;;;;;;62.83;33.92;;;;;;;-148.88;100.00;-17125.47;4993312;28;20450;-72
2023/10/23 07:21:16;;;;;;;63.55;34.08;;;;;;;-148.88;100.00;-17125.47;4994701;28;20462;-72
2023/10/23 07:23:41;;;;;;;64.13;32.40;;;;;;;-148.88;100.00;-17125.47;4991961;28;20469;-72
2023/10/23 07:26:15;;;;;;;62.15;32.28;;;;;;;-148.88;100.00;-17125.47;4993155;28;20045;-72
2023/10/23 07:28:41;;;;;;;62.55;34.22;;;;;;;-148.88;100.00;-17125.47;4993152;28;20388;-72
2023/10/23 07:31:10;;;;;;;59.95;33.42;;;;;;;-148.88;100.00;-17125.47;4993208;28;20026;-72
2023/10/23 07:34:18;;;;;;;64.18;34.50;;;;;;;-148.88;100.00;-17125.47;5017580;23;20037;-89
2023/10/23 07:36:46;;;;;;;63.03;34.88;;;;;;;-148.88;100.00;-17125.47;4980967;28;20073;-89
2023/10/23 07:39:12;;;;;;;66.30;35.75;;;;;;;-148.88;100.00;-17125.47;4997112;28;20081;-87
2023/10/23 07:41:37;;;;;;;70.45;35.88;;;;;;;-148.88;100.00;-17125.47;5015320;28;20018;-89
2023/10/23 07:44:04;;;;;;;67.30;35.58;;;;;;;-148.88;100.00;-17125.47;5008978;28;20120;-88
2023/10/23 07:46:29;;;;;;;73.15;37.83;;;;;;;-148.88;100.00;-17125.47;5013959;28;20056;-90
2023/10/23 07:48:55;;;;;;;72.57;38.63;;;;;;;-148.88;100.00;-17125.47;5014077;28;20388;-89
2023/10/23 07:51:20;;;;;;;76.30;37.45;;;;;;;-148.88;100.00;-17125.47;5013854;28;20463;-90
2023/10/23 07:53:45;;;;;;;74.95;37.58;;;;;;;-148.88;100.00;-17125.47;5014749;28;20025;-90
2023/10/23 07:56:14;;;;;;;70.00;36.35;;;;;;;-148.88;100.00;-17125.47;5014875;28;20028;-90
2023/10/23 07:58:40;;;;;;;64.88;36.22;;;;;;;-148.88;100.00;-17125.47;5014374;28;20029;-89
2023/10/23 08:01:07;;;;;;;71.55;36.75;;;;;;;-148.88;100.00;-17125.47;5014615;28;20028;-88
2023/10/23 08:03:36;;;;;;;71.32;35.95;;;;;;;-148.88;100.00;-17125.47;5012633;28;20053;-88
2023/10/23 08:06:03;;;;;;;75.63;36.25;;;;;;;-148.88;100.00;-17125.47;5013884;28;20061;-94
2023/10/23 08:08:34;;;;;;;69.30;34.35;;;;;;;-148.88;100.00;-17125.47;5015999;28;20048;-90
2023/10/23 08:11:02;;;;;;;69.80;36.78;;;;;;;-148.88;100.00;-17125.47;5014659;28;20030;-89
2023/10/23 08:13:27;;;;;;;74.10;37.33;;;;;;;-148.88;100.00;-17125.47;5014414;28;20057;-88
2023/10/23 08:15:53;;;;;;;72.68;36.25;;;;;;;-148.88;100.00;-17125.47;5014464;28;20038;-88
2023/10/23 08:18:19;;;;;;;72.75;35.97;;;;;;;-148.88;100.00;-17125.47;5013365;28;20037;-88
2023/10/23 08:20:44;;;;;;;78.47;35.83;;;;;;;-148.88;100.00;-17125.47;5018002;28;20496;-90
2023/10/23 08:23:10;;;;;;;76.50;36.45;;;;;;;-148.88;100.00;-17125.47;5014854;28;20026;-88
2023/10/23 08:25:37;;;;;;;75.30;36.28;;;;;;;-148.88;100.00;-17125.47;5014405;28;20084;-90
2023/10/23 08:28:03;;;;;;;77.82;38.25;;;;;;;-148.88;100.00;-17125.47;5014325;28;20387;-89
2023/10/23 08:30:29;;;;;;;77.72;36.25;;;;;;;-148.88;100.00;-17125.47;5013235;28;20089;-91
2023/10/23 08:32:54;;;;;;;72.03;35.13;;;;;;;-148.88;100.00;-17125.47;5014336;28;20052;-91
2023/10/23 08:35:20;;;;;;;62.35;33.15;;;;;;;-148.88;100.00;-17125.47;5018981;28;20041;-92
2023/10/23 08:37:45;;;;;;;67.05;35.00;;;;;;;-148.88;100.00;-17125.47;5018652;28;20030;-91
2023/10/23 08:40:11;;;;;;;62.60;33.22;;;;;;;-148.88;100.00;-17125.47;5016801;28;20022;-90
2023/10/23 08:42:37;;;;;;;67.68;33.50;;;;;;;-148.88;100.00;-17125.47;5016451;28;20140;-91
2023/10/23 08:45:03;;;;;;;60.08;31.98;;;;;;;-148.88;100.00;-17125.47;5018068;28;20453;-91
2023/10/23 08:47:29;;;;;;;62.60;33.25;;;;;;;-148.88;100.00;-17125.47;5016860;28;20080;-91
2023/10/23 08:50:02;;;;;;;57.92;32.30;;;;;;;-148.88;100.00;-17125.47;5018933;28;20018;-91
2023/10/23 08:52:44;;;;;;;53.63;31.20;;;;;;;-148.88;100.00;-17125.47;5017076;28;20388;-92
2023/10/23 08:55:13;;;;;;;47.40;29.98;;;;;;;-148.88;100.00;-17125.47;5016817;28;20045;-91
2023/10/23 08:57:43;;;;;;;42.55;27.85;;;;;;;-148.88;100.00;-17125.47;5018163;28;20029;-90
2023/10/23 09:00:10;;;;;;;45.42;28.85;;;;;;;-148.88;100.00;-17125.47;5016871;28;20045;-92
2023/10/23 09:02:35;;;;;;;43.63;26.38;;;;;;;-148.88;100.00;-17125.47;5018937;28;20058;-92
2023/10/23 09:05:01;;;;;;;39.92;26.23;;;;;;;-148.88;100.00;-17125.47;5019757;28;20061;-91
2023/10/23 09:07:29;;;;;;;35.63;25.23;;;;;;;-148.88;100.00;-17125.47;5019273;28;20472;-91
2023/10/23 09:10:00;;;;;;;37.53;24.92;;;;;;;-148.88;100.00;-17125.47;5018237;28;20022;-92
2023/10/23 09:12:33;;;;;;;36.45;23.27;;;;;;;-148.88;100.00;-17125.47;5018677;28;20025;-92
2023/10/23 09:15:25;;;;;;;30.77;22.15;;;;;;;-148.88;100.00;-17125.47;5018613;28;20051;-92
2023/10/23 09:17:53;;;;;;;30.25;21.73;;;;;;;-148.88;100.00;-17125.47;5018049;28;20472;-92
2023/10/23 09:20:27;;;;;;;30.95;21.45;;;;;;;-148.88;100.00;-17125.47;5017879;28;20022;-92
2023/10/23 09:22:53;;;;;;;30.52;21.98;;;;;;;-148.88;100.00;-17125.47;5018688;28;20069;-92
2023/10/23 09:26:07;;;;;;;30.17;20.70;;;;;;;-148.88;100.00;-17125.47;5017905;28;20433;-92
2023/10/23 09:28:50;;;;;;;;;;;;;;;;;;;;;
2023/10/23 09:31:48;;;;;;;28.52;19.80;;;;;;;-148.88;100.00;-17125.47;5018742;28;20125;-92
2023/10/23 09:34:14;;;;;;;27.02;19.42;;;;;;;-148.88;100.00;-17125.47;5016029;28;20127;-92
2023/10/23 09:36:51;;;;;;;27.30;20.02;;;;;;;-148.88;100.00;-17125.47;5016757;28;20431;-92
2023/10/23 09:39:18;;;;;;;26.15;19.33;;;;;;;-148.88;100.00;-17125.47;5017102;28;20025;-92
2023/10/23 09:41:54;;;;;;;24.25;18.33;;;;;;;-148.88;100.00;-17125.47;5015275;28;20026;-92
2023/10/23 09:44:24;;;;;;;27.35;18.98;;;;;;;-148.88;100.00;-17125.47;5015379;28;20069;-92
2023/10/23 09:46:51;;;;;;;23.23;18.08;;;;;;;-148.88;100.00;-17125.47;5017125;28;20488;-92
2023/10/23 09:49:18;;;;;;;27.98;19.83;;;;;;;-148.88;100.00;-17125.47;5016337;28;20511;-92
2023/10/23 09:51:47;;;;;;;26.67;18.33;;;;;;;-148.88;100.00;-17125.47;5017342;28;20026;-91
2023/10/23 09:54:17;;;;;;;25.58;19.30;;;;;;;-148.88;100.00;-17125.47;5017516;28;20458;-92
2023/10/23 09:57:05;;;;;;;28.23;20.08;;;;;;;-148.88;100.00;-17125.47;5016238;28;20021;-91
2023/10/23 09:59:46;;;;;;;22.10;17.17;;;;;;;-148.88;100.00;-17125.47;5017095;28;20022;-92
2023/10/23 10:02:14;;;;;;;21.73;16.40;;;;;;;-148.88;100.00;-17125.47;5017189;28;20029;-92
2023/10/23 10:04:48;;;;;;;20.92;15.63;;;;;;;-148.88;100.00;-17125.47;5017447;28;20018;-86
2023/10/23 10:07:25;;;;;;;22.92;16.52;;;;;;;-148.88;100.00;-17125.47;5018695;28;20056;-92
2023/10/23 10:09:51;;;;;;;23.10;16.92;;;;;;;-148.88;100.00;-17125.47;5016783;28;20100;-91
2023/10/23 10:12:18;;;;;;;26.08;18.27;;;;;;;-148.88;100.00;-17125.47;5016641;28;20432;-90
2023/10/23 10:14:54;;;;;;;23.63;17.73;;;;;;;-148.88;100.00;-17125.47;5016427;28;20034;-91
2023/10/23 10:17:23;;;;;;;22.55;17.65;;;;;;;-148.88;100.00;-17125.47;5015442;28;20476;-92
2023/10/23 10:19:49;;;;;;;23.50;17.75;;;;;;;-148.88;100.00;-17125.47;5015490;28;20036;-91
2023/10/23 10:22:22;;;;;;;23.55;17.45;;;;;;;-148.88;100.00;-17125.47;5015747;28;20116;-90
2023/10/23 10:24:49;;;;;;;20.65;16.00;;;;;;;-148.88;100.00;-17125.47;5016432;28;20120;-90
2023/10/23 10:27:15;;;;;;;22.10;16.33;;;;;;;-148.88;100.00;-17125.47;5015911;28;20037;-89
2023/10/23 10:29:49;;;;;;;21.13;17.08;;;;;;;-148.88;100.00;-17125.47;5015795;28;20026;-89
2023/10/23 10:32:14;;;;;;;22.73;16.42;;;;;;;-148.88;100.00;-17125.47;5016443;28;20072;-90
2023/10/23 10:34:46;;;;;;;19.10;15.25;;;;;;;-148.88;100.00;-17125.47;5015140;28;20034;-91
2023/10/23 10:37:12;;;;;;;19.02;15.10;;;;;;;-148.88;100.00;-17125.47;5014197;28;20032;-91
2023/10/23 10:39:46;;;;;;;19.77;14.45;;;;;;;-148.88;100.00;-17125.47;5014517;28;20032;-90
2023/10/23 10:42:23;;;;;;;20.10;15.90;;;;;;;-148.88;100.00;-17125.47;5015307;28;20069;-91
2023/10/23 10:45:00;;;;;;;22.00;17.08;;;;;;;-148.88;100.00;-17125.47;5014938;28;20038;-87
2023/10/23 10:47:40;;;;;;;22.40;15.90;;;;;;;-148.88;100.00;-17125.47;5013780;28;20100;-89